sensor_id;sensor_type;location;lat;lon;timestamp;pressure;altitude;pressure_sealevel;temperature;humidity
23118;BME280;11728;50.624;6.014;2022-12-18T00:01:38;99303.72;;;-3.96;65.38
23118;BME280;11728;50.624;6.014;2022-12-18T00:06:38;99303.72;;;-3.79;65.08
23118;BME280;11728;50.624;6.014;2022-12-18T00:11:39;99292.06;;;-3.54;63.19
23118;BME280;11728;50.624;6.014;2022-12-18T00:16:40;99296.34;;;-3.37;62.27
23118;BME280;11728;50.624;6.014;2022-12-18T00:21:43;99300.44;;;-3.23;61.95
23118;BME280;11728;50.624;6.014;2022-12-18T00:26:44;99290.50;;;-3.15;61.31
23118;BME280;11728;50.624;6.014;2022-12-18T00:31:45;99307.44;;;-3.20;61.09
23118;BME280;11728;50.624;6.014;2022-12-18T00:36:47;99306.03;;;-3.14;59.87
23118;BME280;11728;50.624;6.014;2022-12-18T00:41:47;99296.19;;;-3.22;59.59
23118;BME280;11728;50.624;6.014;2022-12-18T00:47:07;99301.19;;;-3.25;59.68
23118;BME280;11728;50.624;6.014;2022-12-18T00:52:07;99294.22;;;-3.09;58.79
23118;BME280;11728;50.624;6.014;2022-12-18T00:57:07;99296.34;;;-3.01;58.50
23118;BME280;11728;50.624;6.014;2022-12-18T01:02:09;99301.84;;;-2.93;58.33
23118;BME280;11728;50.624;6.014;2022-12-18T01:07:11;99297.44;;;-2.96;57.74
23118;BME280;11728;50.624;6.014;2022-12-18T01:12:11;99283.97;;;-2.89;57.92
23118;BME280;11728;50.624;6.014;2022-12-18T01:17:11;99290.31;;;-2.82;57.91
23118;BME280;11728;50.624;6.014;2022-12-18T01:22:12;99281.38;;;-2.89;57.58
23118;BME280;11728;50.624;6.014;2022-12-18T01:27:12;99264.94;;;-2.72;57.73
23118;BME280;11728;50.624;6.014;2022-12-18T01:32:13;99260.28;;;-2.60;57.39
23118;BME280;11728;50.624;6.014;2022-12-18T01:37:15;99260.00;;;-2.47;56.89
23118;BME280;11728;50.624;6.014;2022-12-18T01:42:16;99269.06;;;-2.37;56.35
23118;BME280;11728;50.624;6.014;2022-12-18T01:47:20;99268.34;;;-2.33;56.42
23118;BME280;11728;50.624;6.014;2022-12-18T01:52:24;99273.66;;;-2.30;56.60
23118;BME280;11728;50.624;6.014;2022-12-18T01:57:27;99284.41;;;-2.40;56.75
23118;BME280;11728;50.624;6.014;2022-12-18T02:02:28;99264.25;;;-2.49;56.45
23118;BME280;11728;50.624;6.014;2022-12-18T02:07:53;99252.59;;;-2.39;56.59
23118;BME280;11728;50.624;6.014;2022-12-18T02:18:34;99237.34;;;-2.13;56.10
23118;BME280;11728;50.624;6.014;2022-12-18T02:28:45;99236.94;;;-1.81;54.94
23118;BME280;11728;50.624;6.014;2022-12-18T02:33:49;99236.56;;;-1.90;55.03
23118;BME280;11728;50.624;6.014;2022-12-18T02:38:50;99236.19;;;-1.99;55.58
23118;BME280;11728;50.624;6.014;2022-12-18T02:43:55;99235.94;;;-2.05;55.58
23118;BME280;11728;50.624;6.014;2022-12-18T02:49:04;99238.41;;;-2.08;55.46
23118;BME280;11728;50.624;6.014;2022-12-18T02:54:34;99230.84;;;-2.04;55.71
23118;BME280;11728;50.624;6.014;2022-12-18T02:59:43;99228.47;;;-1.98;55.83
23118;BME280;11728;50.624;6.014;2022-12-18T03:05:13;99219.41;;;-1.88;55.33
23118;BME280;11728;50.624;6.014;2022-12-18T03:10:20;99208.78;;;-1.94;55.19
23118;BME280;11728;50.624;6.014;2022-12-18T03:15:45;99198.06;;;-1.83;55.31
23118;BME280;11728;50.624;6.014;2022-12-18T03:20:49;99189.03;;;-1.92;55.05
23118;BME280;11728;50.624;6.014;2022-12-18T03:25:57;99188.09;;;-1.94;55.58
23118;BME280;11728;50.624;6.014;2022-12-18T03:31:01;99162.81;;;-1.79;54.86
23118;BME280;11728;50.624;6.014;2022-12-18T03:36:03;99169.53;;;-1.84;54.95
23118;BME280;11728;50.624;6.014;2022-12-18T03:52:02;99146.59;;;-1.07;52.58
23118;BME280;11728;50.624;6.014;2022-12-18T03:57:08;99139.00;;;-1.26;52.83
23118;BME280;11728;50.624;6.014;2022-12-18T04:02:10;99142.94;;;-1.37;52.86
23118;BME280;11728;50.624;6.014;2022-12-18T04:07:13;99145.94;;;-1.01;52.12
23118;BME280;11728;50.624;6.014;2022-12-18T04:12:15;99137.72;;;-0.90;51.64
23118;BME280;11728;50.624;6.014;2022-12-18T04:17:18;99137.09;;;-0.83;51.37
23118;BME280;11728;50.624;6.014;2022-12-18T04:22:18;99119.38;;;-0.96;51.17
23118;BME280;11728;50.624;6.014;2022-12-18T04:27:24;99119.28;;;-0.74;50.21
23118;BME280;11728;50.624;6.014;2022-12-18T04:32:25;99118.66;;;-0.67;49.69
23118;BME280;11728;50.624;6.014;2022-12-18T04:37:26;99131.72;;;-0.89;50.34
23118;BME280;11728;50.624;6.014;2022-12-18T04:42:26;99123.97;;;-0.87;50.10
23118;BME280;11728;50.624;6.014;2022-12-18T04:47:27;99125.94;;;-0.80;49.85
23118;BME280;11728;50.624;6.014;2022-12-18T04:52:27;99133.88;;;-1.01;50.43
23118;BME280;11728;50.624;6.014;2022-12-18T04:57:28;99146.63;;;-0.82;49.77
23118;BME280;11728;50.624;6.014;2022-12-18T05:02:28;99156.41;;;-0.75;49.40
23118;BME280;11728;50.624;6.014;2022-12-18T05:07:28;99165.88;;;-0.99;49.92
23118;BME280;11728;50.624;6.014;2022-12-18T05:12:30;99173.63;;;-1.24;49.94
23118;BME280;11728;50.624;6.014;2022-12-18T05:17:31;99169.53;;;-1.84;51.23
23118;BME280;11728;50.624;6.014;2022-12-18T05:22:31;99166.22;;;-2.44;52.44
23118;BME280;11728;50.624;6.014;2022-12-18T05:27:32;99191.25;;;-2.83;53.38
23118;BME280;11728;50.624;6.014;2022-12-18T05:32:32;99196.28;;;-3.05;54.88
23118;BME280;11728;50.624;6.014;2022-12-18T05:37:33;99196.38;;;-3.03;54.31
23118;BME280;11728;50.624;6.014;2022-12-18T05:42:33;99178.22;;;-3.05;54.75
23118;BME280;11728;50.624;6.014;2022-12-18T05:47:34;99162.69;;;-2.26;53.10
23118;BME280;11728;50.624;6.014;2022-12-18T05:52:35;99160.81;;;-1.43;50.53
23118;BME280;11728;50.624;6.014;2022-12-18T05:57:35;99160.50;;;-1.05;49.32
23118;BME280;11728;50.624;6.014;2022-12-18T06:02:36;99137.25;;;-0.78;47.91
23118;BME280;11728;50.624;6.014;2022-12-18T06:07:36;99137.28;;;-0.54;47.20
23118;BME280;11728;50.624;6.014;2022-12-18T06:12:37;99131.97;;;-0.57;46.48
23118;BME280;11728;50.624;6.014;2022-12-18T06:17:38;99134.78;;;-0.24;45.44
23118;BME280;11728;50.624;6.014;2022-12-18T06:22:38;99132.41;;;-0.45;45.89
23118;BME280;11728;50.624;6.014;2022-12-18T06:27:39;99136.09;;;-0.63;46.18
23118;BME280;11728;50.624;6.014;2022-12-18T06:32:39;99146.28;;;-1.16;47.08
23118;BME280;11728;50.624;6.014;2022-12-18T06:37:40;99143.50;;;-0.97;46.90
23118;BME280;11728;50.624;6.014;2022-12-18T06:42:40;99148.59;;;-1.00;46.84
23118;BME280;11728;50.624;6.014;2022-12-18T06:47:41;99155.69;;;-0.94;46.53
23118;BME280;11728;50.624;6.014;2022-12-18T06:52:41;99159.59;;;-0.82;45.98
23118;BME280;11728;50.624;6.014;2022-12-18T06:57:44;99155.53;;;-1.22;46.93
23118;BME280;11728;50.624;6.014;2022-12-18T07:02:44;99151.97;;;-1.26;46.80
23118;BME280;11728;50.624;6.014;2022-12-18T07:07:45;99148.13;;;-0.88;46.50
23118;BME280;11728;50.624;6.014;2022-12-18T07:12:45;99146.13;;;-0.72;46.16
23118;BME280;11728;50.624;6.014;2022-12-18T07:17:46;99139.63;;;-0.35;45.50
23118;BME280;11728;50.624;6.014;2022-12-18T07:22:46;99136.59;;;0.04;44.68
23118;BME280;11728;50.624;6.014;2022-12-18T07:27:49;99120.00;;;-0.01;44.65
23118;BME280;11728;50.624;6.014;2022-12-18T07:32:50;99101.47;;;-0.12;45.32
23118;BME280;11728;50.624;6.014;2022-12-18T07:37:50;99094.00;;;0.26;44.29
23118;BME280;11728;50.624;6.014;2022-12-18T07:42:51;99081.38;;;0.38;44.16
23118;BME280;11728;50.624;6.014;2022-12-18T07:47:51;99061.41;;;0.65;42.92
23118;BME280;11728;50.624;6.014;2022-12-18T07:52:51;99051.34;;;1.09;40.85
23118;BME280;11728;50.624;6.014;2022-12-18T07:57:52;99052.13;;;1.39;40.21
23118;BME280;11728;50.624;6.014;2022-12-18T08:02:53;99042.22;;;1.59;39.63
23118;BME280;11728;50.624;6.014;2022-12-18T08:07:53;99047.16;;;1.83;39.58
23118;BME280;11728;50.624;6.014;2022-12-18T08:12:54;99049.28;;;2.00;39.47
23118;BME280;11728;50.624;6.014;2022-12-18T08:17:57;99038.28;;;2.13;38.99
23118;BME280;11728;50.624;6.014;2022-12-18T08:22:58;99024.41;;;2.13;39.45
23118;BME280;11728;50.624;6.014;2022-12-18T08:27:58;99031.31;;;2.12;39.63
23118;BME280;11728;50.624;6.014;2022-12-18T08:32:59;99031.13;;;2.43;40.52
23118;BME280;11728;50.624;6.014;2022-12-18T08:37:59;99022.16;;;3.17;39.92
23118;BME280;11728;50.624;6.014;2022-12-18T08:43:00;99021.28;;;4.28;39.43
23118;BME280;11728;50.624;6.014;2022-12-18T08:48:19;99022.75;;;5.59;36.30
23118;BME280;11728;50.624;6.014;2022-12-18T08:53:19;99030.84;;;5.84;36.61
23118;BME280;11728;50.624;6.014;2022-12-18T08:58:20;99038.59;;;5.74;36.21
23118;BME280;11728;50.624;6.014;2022-12-18T09:03:21;99023.19;;;6.12;36.21
23118;BME280;11728;50.624;6.014;2022-12-18T09:08:22;99000.78;;;6.83;35.78
23118;BME280;11728;50.624;6.014;2022-12-18T09:13:23;98986.91;;;7.91;33.95
23118;BME280;11728;50.624;6.014;2022-12-18T09:18:24;98970.84;;;8.75;32.05
23118;BME280;11728;50.624;6.014;2022-12-18T09:23:25;98972.66;;;8.67;31.41
23118;BME280;11728;50.624;6.014;2022-12-18T09:28:25;98984.19;;;8.30;30.58
23118;BME280;11728;50.624;6.014;2022-12-18T09:33:26;98980.75;;;7.91;30.76
23118;BME280;11728;50.624;6.014;2022-12-18T09:38:26;98986.03;;;7.63;31.40
23118;BME280;11728;50.624;6.014;2022-12-18T09:43:37;98989.53;;;7.56;31.18
23118;BME280;11728;50.624;6.014;2022-12-18T09:48:44;98981.63;;;7.44;31.09
23118;BME280;11728;50.624;6.014;2022-12-18T09:53:52;98978.13;;;7.28;31.66
23118;BME280;11728;50.624;6.014;2022-12-18T09:59:00;98972.00;;;7.34;31.89
23118;BME280;11728;50.624;6.014;2022-12-18T10:04:02;98974.66;;;7.69;31.58
23118;BME280;11728;50.624;6.014;2022-12-18T10:09:10;98969.41;;;7.59;31.92
23118;BME280;11728;50.624;6.014;2022-12-18T10:14:25;98960.59;;;7.35;32.49
23118;BME280;11728;50.624;6.014;2022-12-18T10:19:43;98962.38;;;7.24;31.57
23118;BME280;11728;50.624;6.014;2022-12-18T10:30:19;98965.00;;;7.68;31.37
23118;BME280;11728;50.624;6.014;2022-12-18T10:35:22;98954.44;;;8.18;31.14
23118;BME280;11728;50.624;6.014;2022-12-18T10:40:23;98971.09;;;8.21;30.32
23118;BME280;11728;50.624;6.014;2022-12-18T10:45:23;98964.06;;;8.11;30.71
23118;BME280;11728;50.624;6.014;2022-12-18T10:50:29;98979.84;;;8.11;30.83
23118;BME280;11728;50.624;6.014;2022-12-18T10:55:39;98985.09;;;8.02;31.03
23118;BME280;11728;50.624;6.014;2022-12-18T11:00:44;98972.00;;;7.71;31.16
23118;BME280;11728;50.624;6.014;2022-12-18T11:05:45;98941.34;;;7.03;32.00
23118;BME280;11728;50.624;6.014;2022-12-18T11:10:46;98949.97;;;6.51;33.43
23118;BME280;11728;50.624;6.014;2022-12-18T11:15:47;98949.75;;;6.09;34.49
23118;BME280;11728;50.624;6.014;2022-12-18T11:20:55;98932.03;;;5.73;35.24
23118;BME280;11728;50.624;6.014;2022-12-18T11:26:01;98938.03;;;5.54;35.64
23118;BME280;11728;50.624;6.014;2022-12-18T11:31:12;98952.75;;;5.43;36.07
23118;BME280;11728;50.624;6.014;2022-12-18T11:36:17;98943.09;;;5.34;35.95
23118;BME280;11728;50.624;6.014;2022-12-18T11:41:41;98944.16;;;5.56;36.17
23118;BME280;11728;50.624;6.014;2022-12-18T11:47:26;98933.84;;;5.80;36.03
23118;BME280;11728;50.624;6.014;2022-12-18T11:52:38;98916.44;;;5.88;35.99
23118;BME280;11728;50.624;6.014;2022-12-18T12:13:38;98881.69;;;6.35;32.18
23118;BME280;11728;50.624;6.014;2022-12-18T12:24:28;98879.06;;;6.39;32.89
23118;BME280;11728;50.624;6.014;2022-12-18T12:29:55;98870.31;;;6.36;33.42
23118;BME280;11728;50.624;6.014;2022-12-18T12:35:29;98866.88;;;6.44;35.39
23118;BME280;11728;50.624;6.014;2022-12-18T12:40:29;98864.28;;;6.93;35.64
23118;BME280;11728;50.624;6.014;2022-12-18T12:50:39;98856.28;;;6.17;37.31
23118;BME280;11728;50.624;6.014;2022-12-18T12:55:41;98855.34;;;6.04;38.77
23118;BME280;11728;50.624;6.014;2022-12-18T13:06:08;98843.97;;;5.94;40.96
23118;BME280;11728;50.624;6.014;2022-12-18T13:11:29;98840.44;;;5.94;41.43
23118;BME280;11728;50.624;6.014;2022-12-18T13:16:49;98836.13;;;6.02;41.86
23118;BME280;11728;50.624;6.014;2022-12-18T13:21:55;98821.31;;;6.12;41.45
23118;BME280;11728;50.624;6.014;2022-12-18T13:26:56;98812.63;;;6.24;41.62
23118;BME280;11728;50.624;6.014;2022-12-18T13:31:59;98806.50;;;6.20;41.95
23118;BME280;11728;50.624;6.014;2022-12-18T13:37:40;98815.22;;;6.19;42.07
23118;BME280;11728;50.624;6.014;2022-12-18T13:42:41;98801.22;;;6.14;42.17
23118;BME280;11728;50.624;6.014;2022-12-18T13:48:00;98797.72;;;6.08;42.18
23118;BME280;11728;50.624;6.014;2022-12-18T13:53:02;98796.81;;;6.06;42.38
23118;BME280;11728;50.624;6.014;2022-12-18T13:58:06;98803.81;;;6.01;42.75
23118;BME280;11728;50.624;6.014;2022-12-18T14:03:17;98794.13;;;5.87;43.41
23118;BME280;11728;50.624;6.014;2022-12-18T14:08:18;98792.41;;;5.86;43.05
23118;BME280;11728;50.624;6.014;2022-12-18T14:13:35;98793.25;;;5.82;43.19
23118;BME280;11728;50.624;6.014;2022-12-18T14:19:03;98795.81;;;5.70;44.20
23118;BME280;11728;50.624;6.014;2022-12-18T14:24:16;98790.50;;;5.61;44.14
23118;BME280;11728;50.624;6.014;2022-12-18T14:29:26;98799.16;;;5.45;44.45
23118;BME280;11728;50.624;6.014;2022-12-18T14:34:27;98802.56;;;5.29;44.32
23118;BME280;11728;50.624;6.014;2022-12-18T14:39:27;98810.34;;;5.20;44.36
23118;BME280;11728;50.624;6.014;2022-12-18T14:44:28;98802.44;;;5.07;44.55
23118;BME280;11728;50.624;6.014;2022-12-18T14:49:31;98819.81;;;4.97;44.85
23118;BME280;11728;50.624;6.014;2022-12-18T14:54:34;98827.50;;;4.81;44.80
23118;BME280;11728;50.624;6.014;2022-12-18T14:59:35;98815.22;;;4.72;44.73
23118;BME280;11728;50.624;6.014;2022-12-18T15:04:38;98815.91;;;4.53;45.08
23118;BME280;11728;50.624;6.014;2022-12-18T15:09:46;98822.75;;;4.38;45.19
23118;BME280;11728;50.624;6.014;2022-12-18T15:15:01;98826.13;;;4.24;44.75
23118;BME280;11728;50.624;6.014;2022-12-18T15:20:09;98822.44;;;4.10;45.74
23118;BME280;11728;50.624;6.014;2022-12-18T15:25:33;98810.00;;;3.85;45.86
23118;BME280;11728;50.624;6.014;2022-12-18T15:30:32;98809.75;;;3.64;46.27
23118;BME280;11728;50.624;6.014;2022-12-18T15:35:32;98799.91;;;3.45;47.46
23118;BME280;11728;50.624;6.014;2022-12-18T15:40:33;98792.13;;;3.50;47.54
23118;BME280;11728;50.624;6.014;2022-12-18T15:45:33;98794.06;;;3.64;46.49
23118;BME280;11728;50.624;6.014;2022-12-18T15:50:34;98787.22;;;3.72;46.09
23118;BME280;11728;50.624;6.014;2022-12-18T15:55:34;98789.91;;;3.81;46.01
23118;BME280;11728;50.624;6.014;2022-12-18T16:00:55;98790.84;;;3.86;45.60
23118;BME280;11728;50.624;6.014;2022-12-18T16:05:57;98790.75;;;3.80;45.94
23118;BME280;11728;50.624;6.014;2022-12-18T16:11:00;98803.00;;;3.84;45.46
23118;BME280;11728;50.624;6.014;2022-12-18T16:16:01;98789.16;;;3.91;44.91
23118;BME280;11728;50.624;6.014;2022-12-18T16:21:01;98785.66;;;3.89;44.71
23118;BME280;11728;50.624;6.014;2022-12-18T16:26:02;98799.66;;;3.97;44.28
23118;BME280;11728;50.624;6.014;2022-12-18T16:31:05;98796.19;;;3.98;44.06
23118;BME280;11728;50.624;6.014;2022-12-18T16:36:05;98790.13;;;4.02;43.76
23118;BME280;11728;50.624;6.014;2022-12-18T16:41:18;98794.50;;;4.03;43.78
23118;BME280;11728;50.624;6.014;2022-12-18T16:46:33;98797.97;;;4.02;43.89
23118;BME280;11728;50.624;6.014;2022-12-18T16:51:34;98794.56;;;4.06;42.84
23118;BME280;11728;50.624;6.014;2022-12-18T16:56:35;98782.44;;;4.12;42.58
23118;BME280;11728;50.624;6.014;2022-12-18T17:01:36;98784.19;;;4.15;42.26
23118;BME280;11728;50.624;6.014;2022-12-18T17:06:44;98790.28;;;4.12;42.58
23118;BME280;11728;50.624;6.014;2022-12-18T17:11:44;98802.50;;;4.16;42.19
23118;BME280;11728;50.624;6.014;2022-12-18T17:16:45;98794.69;;;4.19;41.50
23118;BME280;11728;50.624;6.014;2022-12-18T17:21:48;98789.53;;;4.24;41.49
23118;BME280;11728;50.624;6.014;2022-12-18T17:26:48;98786.88;;;4.22;41.62
23118;BME280;11728;50.624;6.014;2022-12-18T17:31:49;98786.09;;;4.31;41.40
23118;BME280;11728;50.624;6.014;2022-12-18T17:36:49;98784.41;;;4.34;41.01
23118;BME280;11728;50.624;6.014;2022-12-18T17:41:50;98789.63;;;4.36;40.96
23118;BME280;11728;50.624;6.014;2022-12-18T17:46:50;98793.19;;;4.44;40.68
23118;BME280;11728;50.624;6.014;2022-12-18T17:51:51;98794.09;;;4.50;40.79
23118;BME280;11728;50.624;6.014;2022-12-18T17:56:51;98781.09;;;4.57;40.62
23118;BME280;11728;50.624;6.014;2022-12-18T18:01:52;98784.66;;;4.65;40.27
23118;BME280;11728;50.624;6.014;2022-12-18T18:06:52;98771.63;;;4.71;40.75
23118;BME280;11728;50.624;6.014;2022-12-18T18:11:53;98772.53;;;4.73;41.25
23118;BME280;11728;50.624;6.014;2022-12-18T18:17:12;98768.94;;;4.62;42.39
23118;BME280;11728;50.624;6.014;2022-12-18T18:22:15;98773.25;;;4.57;42.82
23118;BME280;11728;50.624;6.014;2022-12-18T18:27:15;98775.88;;;4.57;43.55
23118;BME280;11728;50.624;6.014;2022-12-18T18:32:16;98764.56;;;4.60;44.39
23118;BME280;11728;50.624;6.014;2022-12-18T18:37:16;98757.63;;;4.60;45.91
23118;BME280;11728;50.624;6.014;2022-12-18T18:42:18;98756.75;;;4.64;46.49
23118;BME280;11728;50.624;6.014;2022-12-18T18:47:18;98749.81;;;4.66;46.74
23118;BME280;11728;50.624;6.014;2022-12-18T18:52:20;98752.44;;;4.69;46.88
23118;BME280;11728;50.624;6.014;2022-12-18T18:57:20;98746.34;;;4.70;47.33
23118;BME280;11728;50.624;6.014;2022-12-18T19:02:20;98753.34;;;4.77;47.48
23118;BME280;11728;50.624;6.014;2022-12-18T19:07:21;98760.34;;;4.78;47.97
23118;BME280;11728;50.624;6.014;2022-12-18T19:12:21;98751.59;;;4.73;48.42
23118;BME280;11728;50.624;6.014;2022-12-18T19:17:41;98769.91;;;4.73;48.71
23118;BME280;11728;50.624;6.014;2022-12-18T19:22:41;98765.56;;;4.75;49.67
23118;BME280;11728;50.624;6.014;2022-12-18T19:27:42;98760.34;;;4.80;49.48
23118;BME280;11728;50.624;6.014;2022-12-18T19:32:42;98756.91;;;4.85;49.87
23118;BME280;11728;50.624;6.014;2022-12-18T19:37:43;98746.47;;;4.88;50.02
23118;BME280;11728;50.624;6.014;2022-12-18T19:42:43;98748.22;;;4.89;50.48
23118;BME280;11728;50.624;6.014;2022-12-18T19:47:46;98757.84;;;4.92;50.94
23118;BME280;11728;50.624;6.014;2022-12-18T19:52:46;98765.66;;;4.90;51.86
23118;BME280;11728;50.624;6.014;2022-12-18T19:57:47;98785.72;;;4.90;52.66
23118;BME280;11728;50.624;6.014;2022-12-18T20:02:47;98790.94;;;4.88;53.15
23118;BME280;11728;50.624;6.014;2022-12-18T20:07:48;98803.19;;;4.91;54.49
23118;BME280;11728;50.624;6.014;2022-12-18T20:12:48;98802.34;;;4.96;54.67
23118;BME280;11728;50.624;6.014;2022-12-18T20:17:49;98805.00;;;5.01;55.45
23118;BME280;11728;50.624;6.014;2022-12-18T20:22:50;98807.63;;;5.01;56.15
23118;BME280;11728;50.624;6.014;2022-12-18T20:27:50;98804.06;;;4.96;56.55
23118;BME280;11728;50.624;6.014;2022-12-18T20:32:51;98809.34;;;4.99;57.43
23118;BME280;11728;50.624;6.014;2022-12-18T20:37:51;98811.91;;;4.96;59.35
23118;BME280;11728;50.624;6.014;2022-12-18T20:42:52;98804.03;;;4.90;59.82
23118;BME280;11728;50.624;6.014;2022-12-18T20:47:53;98813.63;;;4.92;60.43
23118;BME280;11728;50.624;6.014;2022-12-18T20:52:54;98814.50;;;4.91;60.95
23118;BME280;11728;50.624;6.014;2022-12-18T20:57:54;98811.00;;;4.86;62.38
23118;BME280;11728;50.624;6.014;2022-12-18T21:02:55;98807.44;;;4.78;63.85
23118;BME280;11728;50.624;6.014;2022-12-18T21:07:55;98809.97;;;4.68;65.38
23118;BME280;11728;50.624;6.014;2022-12-18T21:12:56;98815.16;;;4.60;66.50
23118;BME280;11728;50.624;6.014;2022-12-18T21:17:56;98813.34;;;4.58;67.67
23118;BME280;11728;50.624;6.014;2022-12-18T21:22:57;98810.69;;;4.51;69.49
23118;BME280;11728;50.624;6.014;2022-12-18T21:28:01;98798.44;;;4.47;70.27
23118;BME280;11728;50.624;6.014;2022-12-18T21:33:01;98783.63;;;4.46;71.40
23118;BME280;11728;50.624;6.014;2022-12-18T21:38:02;98778.44;;;4.52;72.33
23118;BME280;11728;50.624;6.014;2022-12-18T21:43:02;98770.69;;;4.60;73.11
23118;BME280;11728;50.624;6.014;2022-12-18T21:48:21;98756.84;;;4.73;74.75
23118;BME280;11728;50.624;6.014;2022-12-18T21:53:22;98751.72;;;4.88;75.56
23118;BME280;11728;50.624;6.014;2022-12-18T21:58:22;98743.13;;;5.10;76.87
23118;BME280;11728;50.624;6.014;2022-12-18T22:03:23;98730.13;;;5.32;77.88
23118;BME280;11728;50.624;6.014;2022-12-18T22:08:24;98720.59;;;5.39;78.79
23118;BME280;11728;50.624;6.014;2022-12-18T22:13:25;98719.72;;;5.43;79.27
23118;BME280;11728;50.624;6.014;2022-12-18T22:18:25;98701.41;;;5.52;78.56
23118;BME280;11728;50.624;6.014;2022-12-18T22:23:27;98724.16;;;5.62;77.08
23118;BME280;11728;50.624;6.014;2022-12-18T22:28:27;98704.09;;;5.67;75.66
23118;BME280;11728;50.624;6.014;2022-12-18T22:33:46;98719.81;;;5.67;74.61
23118;BME280;11728;50.624;6.014;2022-12-18T22:38:47;98701.47;;;5.64;73.56
23118;BME280;11728;50.624;6.014;2022-12-18T22:43:48;98694.44;;;5.57;72.77
23118;BME280;11728;50.624;6.014;2022-12-18T22:48:48;98681.34;;;5.57;74.10
23118;BME280;11728;50.624;6.014;2022-12-18T22:53:49;98683.94;;;5.45;76.18
23118;BME280;11728;50.624;6.014;2022-12-18T22:58:51;98672.50;;;5.22;78.38
23118;BME280;11728;50.624;6.014;2022-12-18T23:03:52;98678.53;;;5.03;79.93
23118;BME280;11728;50.624;6.014;2022-12-18T23:08:56;98680.25;;;4.98;81.11
23118;BME280;11728;50.624;6.014;2022-12-18T23:13:57;98674.16;;;4.96;81.05
23118;BME280;11728;50.624;6.014;2022-12-18T23:18:58;98668.03;;;5.02;81.16
23118;BME280;11728;50.624;6.014;2022-12-18T23:23:58;98664.59;;;5.07;81.35
23118;BME280;11728;50.624;6.014;2022-12-18T23:29:00;98623.63;;;5.15;81.23
23118;BME280;11728;50.624;6.014;2022-12-18T23:34:02;98613.22;;;5.27;81.99
23118;BME280;11728;50.624;6.014;2022-12-18T23:39:03;98587.91;;;5.35;81.81
23118;BME280;11728;50.624;6.014;2022-12-18T23:44:03;98597.53;;;5.37;81.42
23118;BME280;11728;50.624;6.014;2022-12-18T23:49:04;98615.00;;;5.47;81.52
23118;BME280;11728;50.624;6.014;2022-12-18T23:54:05;98594.91;;;5.51;82.01
23118;BME280;11728;50.624;6.014;2022-12-18T23:59:05;98579.22;;;5.54;83.00
